createdAt,value
2023-04-18T00:01:42.880Z,77.08
2023-04-18T00:04:09.735Z,76.73
2023-04-18T00:06:36.555Z,76.48
2023-04-18T00:09:03.783Z,76.34
2023-04-18T00:11:30.441Z,76.24
2023-04-18T00:13:57.497Z,76.16
2023-04-18T00:16:24.224Z,76.34
2023-04-18T00:18:51.990Z,77.13
2023-04-18T00:21:18.822Z,76.84
2023-04-18T00:23:46.155Z,76.90
2023-04-18T00:26:12.817Z,76.92
2023-04-18T00:28:40.795Z,77.75
2023-04-18T00:31:07.432Z,77.84
2023-04-18T00:33:34.433Z,77.83
2023-04-18T00:36:01.116Z,77.69
2023-04-18T00:38:27.685Z,77.83
2023-04-18T00:40:54.279Z,77.66
2023-04-18T00:43:23.141Z,77.46
2023-04-18T00:45:50.155Z,76.99
2023-04-18T00:48:17.202Z,76.59
2023-04-18T00:50:43.936Z,76.52
2023-04-18T00:53:10.994Z,76.84
2023-04-18T00:55:38.548Z,77.04
2023-04-18T00:58:06.280Z,76.97
2023-04-18T01:00:32.951Z,76.91
2023-04-18T01:03:00.067Z,77.16
2023-04-18T01:05:27.179Z,77.68
2023-04-18T01:07:58.764Z,77.07
2023-04-18T01:10:25.411Z,77.03
2023-04-18T01:13:09.260Z,77.67
2023-04-18T01:15:37.048Z,77.40
2023-04-18T01:18:03.838Z,77.17
2023-04-18T01:20:31.330Z,77.00
2023-04-18T01:22:58.683Z,77.16
2023-04-18T01:25:25.938Z,77.08
2023-04-18T01:27:58.887Z,77.19
2023-04-18T01:30:27.306Z,77.12
2023-04-18T01:32:53.975Z,77.21
2023-04-18T01:35:20.783Z,77.04
2023-04-18T01:37:47.318Z,76.83
2023-04-18T01:40:13.958Z,77.37
2023-04-18T01:42:40.531Z,77.29
2023-04-18T01:45:07.393Z,77.85
2023-04-18T01:47:33.989Z,78.08
2023-04-18T01:50:00.955Z,78.07
2023-04-18T01:52:28.492Z,77.88
2023-04-18T01:54:55.077Z,77.32
2023-04-18T01:57:21.633Z,77.55
2023-04-18T01:59:49.491Z,77.34
2023-04-18T02:02:18.033Z,77.18
2023-04-18T02:04:44.688Z,77.14
2023-04-18T02:07:11.246Z,77.32
2023-04-18T02:09:37.808Z,77.13
2023-04-18T02:12:04.498Z,77.53
2023-04-18T02:14:32.460Z,77.71
2023-04-18T02:17:00.732Z,77.67
2023-04-18T02:19:28.409Z,77.93
2023-04-18T02:21:55.031Z,77.90
2023-04-18T02:24:21.684Z,78.18
2023-04-18T02:26:48.360Z,78.25
2023-04-18T02:29:14.999Z,78.42
2023-04-18T02:31:41.836Z,78.28
2023-04-18T02:34:08.592Z,78.62
2023-04-18T02:36:35.161Z,78.83
2023-04-18T02:39:02.862Z,78.77
2023-04-18T02:41:29.389Z,78.90
2023-04-18T02:43:56.050Z,78.72
2023-04-18T02:46:23.467Z,78.93
2023-04-18T02:48:50.352Z,79.03
2023-04-18T02:51:20.010Z,78.99
2023-04-18T02:53:46.831Z,79.28
2023-04-18T02:56:16.984Z,79.04
2023-04-18T02:59:02.063Z,78.85
2023-04-18T03:01:41.612Z,78.98
2023-04-18T03:04:12.676Z,78.90
2023-04-18T03:06:56.175Z,78.61
2023-04-18T03:09:22.817Z,78.74
2023-04-18T03:11:55.593Z,78.93
2023-04-18T03:14:25.832Z,79.27
2023-04-18T03:16:55.701Z,79.06
2023-04-18T03:19:27.080Z,78.96
2023-04-18T03:21:55.424Z,78.96
2023-04-18T03:24:22.399Z,78.58
2023-04-18T03:26:51.989Z,78.61
2023-04-18T03:29:22.031Z,78.71
2023-04-18T03:31:48.762Z,78.79
2023-04-18T03:34:15.624Z,78.77
2023-04-18T03:36:43.103Z,78.83
2023-04-18T03:39:10.926Z,79.13
2023-04-18T03:41:37.624Z,79.40
2023-04-18T03:44:04.782Z,79.48
2023-04-18T03:46:36.743Z,79.25
2023-04-18T03:49:04.582Z,79.22
2023-04-18T03:51:32.977Z,79.00
2023-04-18T03:53:59.566Z,79.15
2023-04-18T03:56:26.245Z,78.92
2023-04-18T03:58:55.374Z,79.12
2023-04-18T04:01:22.636Z,79.12
2023-04-18T04:03:51.703Z,79.19
2023-04-18T04:06:18.751Z,79.09
2023-04-18T04:08:45.360Z,79.23
2023-04-18T04:11:12.688Z,79.14
2023-04-18T04:13:39.464Z,79.41
2023-04-18T04:16:07.017Z,79.67
2023-04-18T04:18:33.737Z,79.57
2023-04-18T04:21:03.189Z,79.70
2023-04-18T04:23:51.154Z,79.42
2023-04-18T04:26:27.802Z,79.50
2023-04-18T04:29:03.791Z,79.25
2023-04-18T04:31:32.934Z,79.36
2023-04-18T04:33:59.654Z,79.52
2023-04-18T04:36:27.274Z,79.86
2023-04-18T04:38:56.890Z,80.07
2023-04-18T04:41:31.730Z,79.99
2023-04-18T04:43:59.654Z,80.24
2023-04-18T04:46:30.877Z,80.40
2023-04-18T04:48:59.999Z,79.88
2023-04-18T04:51:28.054Z,80.36
2023-04-18T04:53:56.368Z,80.27
2023-04-18T04:56:23.488Z,80.61
2023-04-18T04:58:50.257Z,80.13
2023-04-18T05:01:23.567Z,80.21
2023-04-18T05:03:51.612Z,80.35
2023-04-18T05:06:20.772Z,79.97
2023-04-18T05:08:47.921Z,80.38
2023-04-18T05:11:14.520Z,79.88
2023-04-18T05:13:41.177Z,79.56
2023-04-18T05:16:07.818Z,79.35
2023-04-18T05:18:35.108Z,78.78
2023-04-18T05:21:01.697Z,78.35
2023-04-18T05:23:28.264Z,78.24
2023-04-18T05:25:55.046Z,78.76
2023-04-18T05:28:23.734Z,78.83
2023-04-18T05:30:51.076Z,79.06
2023-04-18T05:33:17.883Z,78.83
2023-04-18T05:35:44.451Z,78.61
2023-04-18T05:38:11.014Z,79.06
2023-04-18T05:40:37.669Z,78.93
2023-04-18T05:43:04.221Z,79.34
2023-04-18T05:45:30.967Z,79.10
2023-04-18T05:47:57.532Z,78.78
2023-04-18T05:50:24.184Z,78.32
2023-04-18T05:52:50.962Z,77.89
2023-04-18T05:55:17.642Z,77.86
2023-04-18T05:57:44.240Z,78.13
2023-04-18T06:00:14.482Z,77.27
2023-04-18T06:02:41.353Z,77.47
2023-04-18T06:05:08.665Z,77.36
2023-04-18T06:07:35.639Z,77.60
2023-04-18T06:10:02.202Z,76.84
2023-04-18T06:12:28.801Z,76.66
2023-04-18T06:14:55.322Z,76.26
2023-04-18T06:17:22.009Z,76.18
2023-04-18T06:19:48.577Z,76.17
2023-04-18T06:22:15.148Z,75.85
2023-04-18T06:24:41.647Z,75.67
2023-04-18T06:27:14.906Z,75.23
2023-04-18T06:29:44.309Z,75.33
2023-04-18T06:32:11.299Z,75.08
2023-04-18T06:34:38.394Z,75.15
2023-04-18T06:37:05.249Z,74.48
2023-04-18T06:39:31.880Z,74.46
2023-04-18T06:41:58.509Z,73.84
2023-04-18T06:44:28.380Z,74.52
2023-04-18T06:46:55.058Z,73.88
2023-04-18T06:49:26.244Z,74.10
2023-04-18T06:51:53.254Z,73.83
2023-04-18T06:54:20.003Z,73.66
2023-04-18T06:56:46.549Z,73.83
2023-04-18T06:59:13.221Z,74.22
2023-04-18T07:01:42.181Z,74.42
2023-04-18T07:04:09.062Z,73.04
2023-04-18T07:06:36.345Z,72.62
2023-04-18T07:09:03.087Z,73.36
2023-04-18T07:11:29.889Z,72.68
2023-04-18T07:13:56.752Z,73.01
2023-04-18T07:16:23.377Z,72.50
2023-04-18T07:18:49.944Z,72.46
2023-04-18T07:21:16.474Z,72.19
2023-04-18T07:23:43.118Z,71.79
2023-04-18T07:26:11.393Z,71.92
2023-04-18T07:28:37.910Z,72.34
2023-04-18T07:31:04.821Z,72.10
2023-04-18T07:33:33.686Z,72.00
2023-04-18T07:36:01.214Z,71.59
2023-04-18T07:38:27.771Z,71.72
2023-04-18T07:40:58.153Z,72.04
2023-04-18T07:43:24.789Z,71.98
2023-04-18T07:45:51.746Z,71.57
2023-04-18T07:48:18.459Z,71.32
2023-04-18T07:50:45.074Z,71.65
2023-04-18T07:53:11.662Z,72.20
2023-04-18T07:55:38.219Z,71.89
2023-04-18T07:58:04.769Z,72.22
2023-04-18T08:00:32.819Z,71.66
2023-04-18T08:02:59.667Z,71.07
2023-04-18T08:05:26.322Z,70.98
2023-04-18T08:07:53.164Z,69.74
2023-04-18T08:10:21.363Z,69.95
2023-04-18T08:12:49.786Z,69.16
2023-04-18T08:15:16.330Z,68.28
2023-04-18T08:17:45.131Z,67.15
2023-04-18T08:20:13.024Z,67.01
2023-04-18T08:22:50.043Z,67.14
2023-04-18T08:25:26.301Z,66.60
2023-04-18T08:27:52.882Z,67.73
2023-04-18T08:30:19.463Z,67.66
2023-04-18T08:32:46.088Z,66.73
2023-04-18T08:35:12.812Z,66.46
2023-04-18T08:37:39.356Z,67.02
2023-04-18T08:40:07.303Z,66.99
2023-04-18T08:42:34.423Z,66.27
2023-04-18T08:45:01.420Z,66.07
2023-04-18T08:47:31.203Z,65.50
2023-04-18T08:49:58.482Z,65.80
2023-04-18T08:52:26.713Z,65.31
2023-04-18T08:54:53.320Z,65.55
2023-04-18T08:57:27.066Z,65.57
2023-04-18T08:59:54.090Z,65.12
2023-04-18T09:02:23.766Z,65.08
2023-04-18T09:04:53.098Z,64.75
2023-04-18T09:07:20.916Z,64.42
2023-04-18T09:09:48.394Z,63.06
2023-04-18T09:12:18.306Z,63.26
2023-04-18T09:14:52.317Z,62.38
2023-04-18T09:17:37.050Z,61.33
2023-04-18T09:20:09.997Z,60.79
2023-04-18T09:22:48.635Z,62.42
2023-04-18T09:25:34.954Z,61.60
2023-04-18T09:28:24.718Z,61.78
2023-04-18T09:30:52.609Z,62.84
2023-04-18T09:33:28.296Z,64.06
2023-04-18T09:35:55.615Z,61.89
2023-04-18T09:38:38.587Z,61.93
2023-04-18T09:41:09.140Z,61.48
2023-04-18T09:43:35.750Z,62.31
2023-04-18T09:46:03.910Z,60.13
2023-04-18T09:48:30.689Z,59.49
2023-04-18T09:50:59.351Z,59.88
2023-04-18T09:53:26.701Z,59.55
2023-04-18T09:55:55.553Z,59.43
2023-04-18T09:58:25.328Z,58.63
2023-04-18T10:00:53.649Z,60.23
2023-04-18T10:03:23.723Z,59.22
2023-04-18T10:05:50.460Z,59.78
2023-04-18T10:08:17.137Z,59.95
2023-04-18T10:10:43.936Z,58.96
2023-04-18T10:13:11.937Z,60.52
2023-04-18T10:15:38.747Z,61.09
2023-04-18T10:18:14.659Z,62.21
2023-04-18T10:20:42.028Z,61.56
2023-04-18T10:23:35.012Z,60.36
2023-04-18T10:26:02.203Z,58.78
2023-04-18T10:28:48.652Z,60.26
2023-04-18T10:31:16.619Z,59.31
2023-04-18T10:34:03.299Z,59.41
2023-04-18T10:36:32.451Z,57.23
2023-04-18T10:39:17.552Z,58.09
2023-04-18T10:41:51.069Z,57.96
2023-04-18T10:44:19.276Z,56.94
2023-04-18T10:46:48.589Z,56.34
2023-04-18T10:49:27.418Z,56.48
2023-04-18T10:51:58.998Z,55.41
2023-04-18T10:54:44.303Z,56.29
2023-04-18T10:57:12.126Z,57.09
2023-04-18T10:59:41.590Z,57.63
2023-04-18T11:02:14.352Z,56.60
2023-04-18T11:04:41.288Z,56.37
2023-04-18T11:07:08.496Z,57.15
2023-04-18T11:09:35.159Z,56.18
2023-04-18T11:12:06.514Z,56.81
2023-04-18T11:14:41.960Z,57.92
2023-04-18T11:17:24.949Z,57.50
2023-04-18T11:19:59.330Z,56.97
2023-04-18T11:22:26.248Z,57.23
2023-04-18T11:24:57.562Z,57.84
2023-04-18T11:27:24.883Z,58.80
2023-04-18T11:29:55.056Z,59.34
2023-04-18T11:32:22.821Z,58.96
2023-04-18T11:34:53.516Z,58.98
2023-04-18T11:37:22.644Z,58.31
2023-04-18T11:39:51.974Z,57.77
2023-04-18T11:42:18.565Z,56.90
2023-04-18T11:44:45.860Z,58.51
2023-04-18T11:47:24.683Z,60.10
2023-04-18T11:49:58.921Z,59.99
2023-04-18T11:52:29.227Z,60.10
2023-04-18T11:54:56.603Z,59.89
2023-04-18T11:57:24.565Z,60.10
2023-04-18T11:59:56.232Z,60.73
2023-04-18T12:02:24.617Z,60.07
2023-04-18T12:04:59.358Z,59.46
2023-04-18T12:07:29.887Z,59.26
2023-04-18T12:09:56.478Z,60.00
2023-04-18T12:12:23.008Z,59.85
2023-04-18T12:14:57.453Z,59.08
2023-04-18T12:17:25.932Z,59.44
2023-04-18T12:19:53.654Z,59.61
2023-04-18T12:22:20.218Z,59.73
2023-04-18T12:24:46.786Z,59.20
2023-04-18T12:27:13.513Z,59.27
2023-04-18T12:29:40.113Z,60.04
2023-04-18T12:32:06.687Z,60.13
2023-04-18T12:34:33.279Z,60.11
2023-04-18T12:37:00.164Z,60.96
2023-04-18T12:39:26.883Z,60.94
2023-04-18T12:41:53.556Z,61.24
2023-04-18T12:44:20.372Z,61.29
2023-04-18T12:46:47.150Z,61.84
2023-04-18T12:49:13.837Z,61.29
2023-04-18T12:51:40.685Z,60.73
2023-04-18T12:54:07.329Z,62.01
2023-04-18T12:56:33.892Z,62.29
2023-04-18T12:59:00.580Z,61.49
2023-04-18T13:01:27.842Z,61.35
2023-04-18T13:04:08.253Z,61.16
2023-04-18T13:06:38.751Z,61.71
2023-04-18T13:09:05.317Z,61.97
2023-04-18T13:11:31.906Z,62.66
2023-04-18T13:13:59.350Z,62.50
2023-04-18T13:16:25.941Z,62.61
2023-04-18T13:18:52.521Z,63.08
2023-04-18T13:21:19.070Z,63.14
2023-04-18T13:23:45.593Z,63.85
2023-04-18T13:26:12.344Z,63.52
2023-04-18T13:28:38.920Z,63.48
2023-04-18T13:31:08.363Z,63.16
2023-04-18T13:33:35.006Z,62.74
2023-04-18T13:36:01.703Z,62.59
2023-04-18T13:38:28.267Z,62.43
2023-04-18T13:41:04.703Z,62.55
2023-04-18T13:43:37.878Z,62.32
2023-04-18T13:46:04.579Z,62.40
2023-04-18T13:48:31.165Z,63.07
2023-04-18T13:50:57.840Z,63.74
2023-04-18T13:53:24.395Z,63.66
2023-04-18T13:55:50.901Z,63.03
2023-04-18T13:58:17.444Z,62.12
2023-04-18T14:00:44.045Z,62.07
2023-04-18T14:03:10.953Z,63.20
2023-04-18T14:05:37.800Z,63.33
2023-04-18T14:08:04.963Z,62.85
2023-04-18T14:10:31.570Z,64.06
2023-04-18T14:12:58.210Z,64.18
2023-04-18T14:15:24.774Z,64.31
2023-04-18T14:17:51.702Z,64.32
2023-04-18T14:20:20.984Z,64.47
2023-04-18T14:22:51.538Z,64.98
2023-04-18T14:25:19.589Z,65.68
2023-04-18T14:27:47.390Z,65.86
2023-04-18T14:30:14.356Z,66.33
2023-04-18T14:32:41.049Z,66.30
2023-04-18T14:35:08.019Z,66.19
2023-04-18T14:37:35.547Z,66.53
2023-04-18T14:40:02.107Z,66.23
2023-04-18T14:42:28.684Z,65.89
2023-04-18T14:44:55.347Z,65.86
2023-04-18T14:47:24.229Z,65.33
2023-04-18T14:49:51.245Z,65.06
2023-04-18T14:52:17.790Z,65.91
2023-04-18T14:54:44.375Z,66.44
2023-04-18T14:57:13.007Z,66.70
2023-04-18T14:59:39.670Z,67.46
2023-04-18T15:02:06.345Z,67.50
2023-04-18T15:04:33.275Z,67.78
2023-04-18T15:06:59.935Z,68.08
2023-04-18T15:09:26.697Z,68.10
2023-04-18T15:11:54.287Z,68.06
2023-04-18T15:14:20.896Z,68.47
2023-04-18T15:16:50.579Z,68.95
2023-04-18T15:19:17.219Z,68.98
2023-04-18T15:21:43.803Z,69.62
2023-04-18T15:24:10.735Z,70.17
2023-04-18T15:26:37.476Z,70.93
2023-04-18T15:29:04.164Z,71.12
2023-04-18T15:31:31.227Z,71.19
2023-04-18T15:33:58.089Z,71.14
2023-04-18T15:36:24.694Z,71.73
2023-04-18T15:38:51.500Z,72.22
2023-04-18T15:41:18.037Z,72.67
2023-04-18T15:43:45.603Z,73.33
2023-04-18T15:46:12.402Z,73.63
2023-04-18T15:48:38.973Z,73.81
2023-04-18T15:51:05.649Z,72.68
2023-04-18T15:53:32.675Z,73.66
2023-04-18T15:56:01.028Z,73.91
2023-04-18T15:58:30.140Z,73.86
2023-04-18T16:00:57.286Z,74.29
2023-04-18T16:03:24.739Z,75.10
2023-04-18T16:05:51.464Z,75.58
2023-04-18T16:08:18.064Z,75.81
2023-04-18T16:10:44.757Z,75.94
2023-04-18T16:13:11.562Z,76.14
2023-04-18T16:15:42.022Z,76.15
2023-04-18T16:18:08.732Z,76.17
2023-04-18T16:20:35.643Z,76.26
2023-04-18T16:23:02.277Z,75.68
2023-04-18T16:25:28.869Z,76.57
2023-04-18T16:27:55.505Z,77.19
2023-04-18T16:30:22.136Z,76.96
2023-04-18T16:32:48.856Z,77.35
2023-04-18T16:35:15.535Z,77.67
2023-04-18T16:37:42.136Z,77.59
2023-04-18T16:40:10.178Z,78.00
2023-04-18T16:42:36.987Z,78.24
2023-04-18T16:45:04.019Z,78.32
2023-04-18T16:47:30.653Z,79.01
2023-04-18T16:49:57.205Z,78.94
2023-04-18T16:52:24.273Z,79.57
2023-04-18T16:54:52.495Z,80.11
2023-04-18T16:57:19.307Z,80.61
2023-04-18T16:59:46.040Z,80.65
2023-04-18T17:02:12.717Z,80.96
2023-04-18T17:04:39.481Z,80.80
2023-04-18T17:07:06.465Z,81.27
2023-04-18T17:09:33.012Z,81.75
2023-04-18T17:11:59.668Z,81.62
2023-04-18T17:14:26.247Z,81.60
2023-04-18T17:16:53.781Z,82.13
2023-04-18T17:19:20.541Z,82.48
2023-04-18T17:21:47.197Z,82.73
2023-04-18T17:24:14.361Z,83.26
2023-04-18T17:26:41.051Z,83.62
2023-04-18T17:29:07.787Z,83.10
2023-04-18T17:31:34.458Z,83.27
2023-04-18T17:34:01.165Z,83.36
2023-04-18T17:36:27.836Z,82.85
2023-04-18T17:38:54.368Z,83.31
2023-04-18T17:41:21.586Z,83.66
2023-04-18T17:43:50.764Z,83.76
2023-04-18T17:46:17.716Z,84.48
2023-04-18T17:48:44.387Z,84.82
2023-04-18T17:51:11.001Z,84.79
2023-04-18T17:53:37.563Z,84.52
2023-04-18T17:56:04.344Z,84.15
2023-04-18T17:58:31.195Z,83.71
2023-04-18T18:00:57.828Z,83.38
2023-04-18T18:03:24.757Z,84.00
2023-04-18T18:05:51.876Z,83.83
2023-04-18T18:08:18.507Z,84.28
2023-04-18T18:10:46.929Z,84.11
2023-04-18T18:13:13.655Z,83.95
2023-04-18T18:15:40.162Z,84.19
2023-04-18T18:18:06.840Z,84.23
2023-04-18T18:20:33.549Z,83.74
2023-04-18T18:23:00.233Z,83.61
2023-04-18T18:25:27.618Z,82.73
2023-04-18T18:27:54.570Z,82.79
2023-04-18T18:30:21.392Z,83.00
2023-04-18T18:32:47.970Z,83.24
2023-04-18T18:35:14.511Z,83.37
2023-04-18T18:37:41.133Z,83.62
2023-04-18T18:40:08.568Z,83.50
2023-04-18T18:42:35.216Z,83.57
2023-04-18T18:45:02.388Z,83.34
2023-04-18T18:47:30.642Z,83.56
2023-04-18T18:49:57.407Z,83.24
2023-04-18T18:52:29.626Z,83.25
2023-04-18T18:54:56.296Z,83.16
2023-04-18T18:57:23.027Z,82.89
2023-04-18T18:59:50.290Z,83.10
2023-04-18T19:02:16.903Z,81.81
2023-04-18T19:04:43.611Z,81.48
2023-04-18T19:07:10.328Z,81.20
2023-04-18T19:09:37.040Z,80.21
2023-04-18T19:12:04.950Z,78.97
2023-04-18T19:14:31.618Z,79.23
2023-04-18T19:16:58.384Z,79.66
2023-04-18T19:19:25.096Z,79.93
2023-04-18T19:21:51.700Z,79.73
2023-04-18T19:24:18.607Z,79.40
2023-04-18T19:26:45.226Z,79.34
2023-04-18T19:29:14.466Z,78.03
2023-04-18T19:31:43.538Z,77.14
2023-04-18T19:34:11.846Z,75.89
2023-04-18T19:36:38.647Z,74.97
2023-04-18T19:39:05.316Z,74.20
2023-04-18T19:41:32.015Z,73.30
2023-04-18T19:43:58.965Z,72.30
2023-04-18T19:46:26.185Z,72.70
2023-04-18T19:48:52.904Z,73.14
2023-04-18T19:51:19.574Z,73.68
2023-04-18T19:53:46.160Z,74.41
2023-04-18T19:56:14.232Z,73.91
2023-04-18T19:58:45.299Z,74.07
2023-04-18T20:01:19.353Z,72.83
2023-04-18T20:03:47.054Z,74.13
2023-04-18T20:06:14.026Z,74.52
2023-04-18T20:08:47.446Z,74.95
2023-04-18T20:11:14.372Z,75.21
2023-04-18T20:13:41.553Z,75.09
2023-04-18T20:16:08.943Z,74.23
2023-04-18T20:18:37.718Z,73.33
2023-04-18T20:21:05.797Z,72.61
2023-04-18T20:23:32.500Z,71.01
2023-04-18T20:25:59.136Z,70.84
2023-04-18T20:28:25.874Z,70.69
2023-04-18T20:30:52.679Z,71.64
2023-04-18T20:33:19.613Z,72.46
2023-04-18T20:35:46.858Z,72.93
2023-04-18T20:38:14.961Z,72.82
2023-04-18T20:40:45.167Z,72.47
2023-04-18T20:43:13.469Z,73.28
2023-04-18T20:45:43.039Z,72.88
2023-04-18T20:48:10.222Z,72.20
2023-04-18T20:50:36.821Z,71.51
2023-04-18T20:53:04.044Z,71.42
2023-04-18T20:55:31.018Z,70.92
2023-04-18T20:57:58.714Z,69.87
2023-04-18T21:00:25.607Z,69.42
2023-04-18T21:02:52.409Z,69.64
2023-04-18T21:05:19.118Z,69.24
2023-04-18T21:07:45.985Z,69.20
2023-04-18T21:10:12.657Z,68.90
2023-04-18T21:12:39.218Z,69.29
2023-04-18T21:15:06.170Z,69.07
2023-04-18T21:17:32.759Z,69.16
2023-04-18T21:19:59.323Z,69.55
2023-04-18T21:22:25.821Z,69.90
2023-04-18T21:24:52.344Z,70.23
2023-04-18T21:27:19.015Z,70.95
2023-04-18T21:29:45.886Z,71.28
2023-04-18T21:32:12.415Z,71.48
2023-04-18T21:34:38.960Z,71.62
2023-04-18T21:37:05.634Z,71.88
2023-04-18T21:39:32.285Z,72.25
2023-04-18T21:41:58.849Z,72.56
2023-04-18T21:44:25.446Z,72.99
2023-04-18T21:46:52.019Z,73.30
2023-04-18T21:49:18.685Z,73.80
2023-04-18T21:51:45.458Z,74.35
2023-04-18T21:54:12.228Z,74.40
2023-04-18T21:56:39.066Z,74.62
2023-04-18T21:59:05.668Z,75.02
2023-04-18T22:01:34.459Z,75.61
2023-04-18T22:04:01.705Z,75.92
2023-04-18T22:06:29.305Z,76.08
2023-04-18T22:08:55.902Z,76.79
2023-04-18T22:11:23.736Z,77.26
2023-04-18T22:13:54.067Z,77.60
2023-04-18T22:16:24.729Z,77.49
2023-04-18T22:18:51.393Z,77.40
2023-04-18T22:21:17.989Z,77.37
2023-04-18T22:23:44.641Z,76.89
2023-04-18T22:26:11.223Z,77.59
2023-04-18T22:28:37.863Z,77.50
2023-04-18T22:31:04.476Z,77.73
2023-04-18T22:33:31.090Z,78.05
2023-04-18T22:35:57.686Z,78.00
2023-04-18T22:38:24.823Z,78.00
2023-04-18T22:40:51.430Z,77.77
2023-04-18T22:43:24.570Z,77.82
2023-04-18T22:45:51.631Z,77.96
2023-04-18T22:48:18.758Z,78.27
2023-04-18T22:50:46.243Z,78.27
2023-04-18T22:53:14.124Z,78.28
2023-04-18T22:55:44.050Z,78.10
2023-04-18T22:58:11.173Z,77.83
2023-04-18T23:00:37.841Z,77.58
2023-04-18T23:03:04.798Z,77.57
2023-04-18T23:05:31.551Z,77.30
2023-04-18T23:08:00.122Z,77.34
2023-04-18T23:10:27.266Z,77.47
2023-04-18T23:12:53.789Z,77.65
2023-04-18T23:15:22.865Z,77.64
2023-04-18T23:17:51.598Z,77.90
2023-04-18T23:20:18.318Z,78.26
2023-04-18T23:22:44.973Z,78.22
2023-04-18T23:25:11.632Z,78.14
2023-04-18T23:27:38.306Z,78.20
2023-04-18T23:30:05.069Z,78.11
2023-04-18T23:32:31.748Z,77.56
2023-04-18T23:34:58.425Z,78.23
2023-04-18T23:37:25.069Z,78.00
2023-04-18T23:39:51.711Z,78.21
2023-04-18T23:42:18.300Z,78.69
2023-04-18T23:44:45.107Z,78.93
2023-04-18T23:47:11.793Z,79.41
2023-04-18T23:49:38.512Z,79.75
2023-04-18T23:52:05.255Z,79.79
2023-04-18T23:54:31.848Z,79.86
2023-04-18T23:56:58.543Z,80.03
2023-04-18T23:59:25.134Z,80.04
